createdAt,value
2022-12-31T00:01:30.336Z,88.60
2022-12-31T00:03:58.159Z,88.60
2022-12-31T00:06:24.975Z,88.60
2022-12-31T00:08:53.223Z,88.60
2022-12-31T00:11:23.038Z,88.60
2022-12-31T00:13:50.484Z,88.60
2022-12-31T00:16:23.778Z,88.40
2022-12-31T00:18:55.949Z,88.40
2022-12-31T00:21:22.888Z,88.50
2022-12-31T00:23:49.745Z,88.50
2022-12-31T00:26:19.500Z,88.50
2022-12-31T00:28:46.805Z,88.50
2022-12-31T06:01:44.844Z,91.60
2022-12-31T06:04:11.701Z,91.80
2022-12-31T06:06:38.511Z,91.60
2022-12-31T06:09:05.365Z,91.50
2022-12-31T06:11:34.170Z,91.40
2022-12-31T06:14:00.992Z,91.30
2022-12-31T06:16:29.689Z,91.30
2022-12-31T06:18:56.487Z,91.50
2022-12-31T06:21:26.204Z,91.30
2022-12-31T06:23:53.161Z,91.10
2022-12-31T06:26:20.159Z,91.20
2022-12-31T06:28:46.975Z,91.20
2022-12-31T06:31:15.446Z,91.20
2022-12-31T06:33:42.348Z,91.30
2022-12-31T06:36:13.065Z,91.30
2022-12-31T06:38:41.567Z,91.50
2022-12-31T06:41:10.366Z,91.50
2022-12-31T06:43:38.474Z,91.80
2022-12-31T06:46:09.539Z,91.70
2022-12-31T06:48:36.870Z,91.70
2022-12-31T06:51:18.583Z,91.80
2022-12-31T06:53:47.457Z,91.90
2022-12-31T06:56:18.844Z,92.10
2022-12-31T06:58:46.438Z,92.20
2022-12-31T07:01:40.965Z,92.40
2022-12-31T07:04:33.165Z,92.30
2022-12-31T07:07:15.525Z,92.40
2022-12-31T07:10:06.021Z,92.50
2022-12-31T07:13:27.143Z,92.50
2022-12-31T07:16:08.585Z,92.60
2022-12-31T07:18:44.621Z,92.50
2022-12-31T07:21:18.442Z,92.50
2022-12-31T07:23:45.651Z,92.40
2022-12-31T07:26:30.614Z,92.30
2022-12-31T07:29:32.988Z,92.10
2022-12-31T07:32:21.291Z,92.20
2022-12-31T07:34:56.641Z,92.10
2022-12-31T07:37:42.468Z,92.20
2022-12-31T07:40:35.440Z,92.10
2022-12-31T07:43:28.181Z,92.00
2022-12-31T07:46:16.865Z,92.00
2022-12-31T07:48:43.963Z,92.10
2022-12-31T07:51:11.754Z,92.10
2022-12-31T07:53:39.763Z,92.10
2022-12-31T07:56:08.725Z,92.00
2022-12-31T07:58:39.919Z,91.90
2022-12-31T08:01:15.721Z,91.70
2022-12-31T08:03:55.191Z,91.60
2022-12-31T08:06:39.910Z,91.60
2022-12-31T08:09:30.795Z,91.50
2022-12-31T08:12:00.967Z,91.40
2022-12-31T08:14:29.251Z,91.40
2022-12-31T08:16:57.340Z,91.30
2022-12-31T08:19:30.646Z,91.20
2022-12-31T08:22:15.620Z,91.20
2022-12-31T08:25:06.658Z,91.40
2022-12-31T08:27:55.401Z,91.30
2022-12-31T08:30:23.626Z,91.30
2022-12-31T08:33:08.500Z,91.40
2022-12-31T08:35:52.333Z,91.50
2022-12-31T08:39:12.192Z,91.50
2022-12-31T08:41:45.293Z,91.80
2022-12-31T08:44:24.338Z,91.70
2022-12-31T08:46:54.325Z,91.80
2022-12-31T08:49:21.282Z,91.70
2022-12-31T08:51:48.212Z,91.90
2022-12-31T08:54:15.277Z,91.60
2022-12-31T08:56:51.026Z,91.60
2022-12-31T08:59:36.572Z,91.70
2022-12-31T09:02:46.264Z,91.70
2022-12-31T09:05:30.228Z,91.80
2022-12-31T09:08:18.910Z,91.80
2022-12-31T09:11:09.540Z,91.90
2022-12-31T09:13:55.178Z,91.90
2022-12-31T09:16:36.822Z,92.00
2022-12-31T09:19:03.724Z,92.00
2022-12-31T09:21:32.472Z,92.00
2022-12-31T09:24:03.140Z,92.10
2022-12-31T09:26:41.172Z,91.90
2022-12-31T09:29:29.196Z,91.90
2022-12-31T09:32:17.761Z,91.90
2022-12-31T09:34:58.445Z,91.80
2022-12-31T09:37:25.305Z,91.70
2022-12-31T09:39:55.798Z,92.00
2022-12-31T09:43:09.346Z,91.80
2022-12-31T09:46:17.059Z,91.70
2022-12-31T09:49:06.308Z,91.70
2022-12-31T09:51:53.777Z,91.60
2022-12-31T09:54:38.675Z,91.60
2022-12-31T09:57:39.814Z,91.40
2022-12-31T10:00:36.220Z,91.50
2022-12-31T10:03:03.046Z,91.50
2022-12-31T10:05:35.814Z,91.70
2022-12-31T10:08:26.752Z,91.60
2022-12-31T10:10:59.478Z,91.20
2022-12-31T10:13:55.624Z,90.80
2022-12-31T10:16:52.664Z,90.90
2022-12-31T10:19:49.443Z,91.00
2022-12-31T10:22:37.633Z,91.20
2022-12-31T10:25:38.087Z,91.20
2022-12-31T10:28:25.323Z,91.40
2022-12-31T10:31:14.832Z,91.70
2022-12-31T10:33:46.215Z,91.40
2022-12-31T10:36:39.603Z,91.50
2022-12-31T10:39:38.173Z,91.50
2022-12-31T10:42:35.881Z,91.20
2022-12-31T10:45:30.284Z,91.30
2022-12-31T10:48:18.466Z,91.40
2022-12-31T10:51:10.189Z,91.40
2022-12-31T10:53:56.872Z,91.10
2022-12-31T10:56:55.002Z,91.10
2022-12-31T10:59:40.889Z,90.80
2022-12-31T11:02:39.927Z,90.90
2022-12-31T11:05:51.819Z,91.00
2022-12-31T11:09:00.142Z,91.00
2022-12-31T11:11:57.764Z,91.30
2022-12-31T11:14:46.491Z,91.30
2022-12-31T11:17:40.889Z,91.40
2022-12-31T11:20:27.898Z,91.50
2022-12-31T11:23:13.646Z,91.30
2022-12-31T11:25:59.460Z,91.50
2022-12-31T11:28:57.657Z,91.50
2022-12-31T11:31:50.643Z,91.80
2022-12-31T11:34:36.129Z,91.60
2022-12-31T11:37:23.868Z,91.50
2022-12-31T11:40:19.030Z,91.50
2022-12-31T11:43:00.785Z,91.80
2022-12-31T11:45:59.552Z,91.80
2022-12-31T11:48:50.606Z,91.60
2022-12-31T11:51:32.364Z,91.30
2022-12-31T11:54:20.466Z,91.00
2022-12-31T11:56:59.261Z,91.00
2022-12-31T11:59:26.174Z,90.80
2022-12-31T12:01:52.921Z,90.40
2022-12-31T12:04:19.817Z,90.10
2022-12-31T12:06:50.490Z,90.10
2022-12-31T12:09:44.824Z,89.70
2022-12-31T12:12:12.549Z,89.60
2022-12-31T12:14:42.449Z,89.80
2022-12-31T12:17:34.787Z,89.70
2022-12-31T12:20:18.750Z,89.80
2022-12-31T12:22:56.261Z,90.00
2022-12-31T12:25:27.708Z,90.00
2022-12-31T12:27:54.770Z,90.00
2022-12-31T12:30:24.888Z,90.00
2022-12-31T12:33:00.774Z,90.00
2022-12-31T12:35:33.720Z,89.90
2022-12-31T12:38:03.958Z,89.70
2022-12-31T12:40:34.585Z,89.50
2022-12-31T12:43:02.989Z,89.40
2022-12-31T13:01:26.671Z,90.00
2022-12-31T13:04:35.843Z,90.10
2022-12-31T13:07:27.610Z,89.70
2022-12-31T13:10:05.932Z,89.90
2022-12-31T13:13:22.755Z,89.70
2022-12-31T13:15:55.522Z,89.90
2022-12-31T13:18:34.127Z,90.00
2022-12-31T13:21:21.182Z,90.10
2022-12-31T13:23:54.682Z,90.30
2022-12-31T13:26:30.479Z,90.40
2022-12-31T13:29:01.738Z,90.30
2022-12-31T13:31:37.661Z,90.00
2022-12-31T13:34:33.663Z,90.00
2022-12-31T13:37:14.586Z,90.10
2022-12-31T13:39:44.262Z,89.90
2022-12-31T13:42:23.564Z,90.10
2022-12-31T13:45:13.585Z,90.20
2022-12-31T13:47:55.652Z,90.30
2022-12-31T13:51:03.213Z,90.30
2022-12-31T13:53:51.700Z,90.30
2022-12-31T13:56:24.517Z,90.30
2022-12-31T13:58:59.660Z,90.30
2022-12-31T14:01:34.684Z,90.20
2022-12-31T14:04:25.293Z,90.40
2022-12-31T14:07:07.241Z,90.10
2022-12-31T14:09:35.134Z,89.90
2022-12-31T14:12:05.983Z,89.80
2022-12-31T14:14:47.781Z,89.30
2022-12-31T14:17:39.139Z,89.20
2022-12-31T14:20:21.119Z,89.20
2022-12-31T14:23:03.799Z,89.10
2022-12-31T14:25:42.702Z,89.30
2022-12-31T14:28:24.088Z,89.30
2022-12-31T14:30:59.698Z,89.00
2022-12-31T14:33:39.625Z,89.30
2022-12-31T14:36:10.831Z,88.80
2022-12-31T14:38:37.882Z,88.40
2022-12-31T14:41:26.587Z,88.00
2022-12-31T14:44:10.388Z,88.10
2022-12-31T14:46:51.864Z,88.10
2022-12-31T14:49:37.629Z,88.00
2022-12-31T14:52:16.406Z,88.30
2022-12-31T14:54:43.290Z,88.50
2022-12-31T14:57:21.726Z,88.40
2022-12-31T14:59:57.219Z,88.60
2022-12-31T15:02:33.976Z,88.50
2022-12-31T15:05:14.290Z,88.30
2022-12-31T15:07:54.350Z,88.40
2022-12-31T15:11:00.792Z,88.70
2022-12-31T15:13:42.424Z,88.30
2022-12-31T15:16:25.588Z,88.30
2022-12-31T15:19:13.574Z,87.90
2022-12-31T15:22:09.897Z,87.90
2022-12-31T15:24:44.369Z,87.80
2022-12-31T15:27:35.900Z,87.30
2022-12-31T15:30:05.737Z,87.00
2022-12-31T15:32:41.282Z,87.20
2022-12-31T15:35:23.365Z,86.70
2022-12-31T15:38:04.858Z,87.00
2022-12-31T15:40:42.124Z,86.60
2022-12-31T15:43:18.266Z,86.30
2022-12-31T15:45:48.299Z,86.50
2022-12-31T15:48:43.372Z,86.10
2022-12-31T15:51:18.338Z,85.80
2022-12-31T15:53:52.625Z,85.80
2022-12-31T15:56:28.661Z,86.00
2022-12-31T15:58:59.222Z,86.30
2022-12-31T16:01:34.486Z,85.90
2022-12-31T16:04:08.751Z,86.00
2022-12-31T16:06:39.285Z,86.20
2022-12-31T16:09:18.731Z,86.10
2022-12-31T16:11:45.883Z,85.60
2022-12-31T16:14:54.557Z,85.40
2022-12-31T16:17:33.939Z,85.30
2022-12-31T16:20:03.014Z,85.30
2022-12-31T16:22:39.010Z,85.10
2022-12-31T16:25:30.146Z,85.20
2022-12-31T16:27:55.511Z,85.20
2022-12-31T16:30:27.294Z,85.90
2022-12-31T16:33:00.320Z,85.30
2022-12-31T16:35:30.346Z,85.80
2022-12-31T16:38:19.435Z,85.50
2022-12-31T16:41:01.736Z,85.10
2022-12-31T16:43:35.693Z,85.80
2022-12-31T16:46:15.981Z,85.10
2022-12-31T16:48:53.662Z,84.50
2022-12-31T16:51:24.406Z,85.00
2022-12-31T16:53:51.698Z,85.70
2022-12-31T16:56:32.677Z,85.40
2022-12-31T16:59:06.751Z,85.60
2022-12-31T17:01:37.083Z,85.20
2022-12-31T17:04:10.045Z,85.90
2022-12-31T17:06:37.223Z,85.30
2022-12-31T17:09:04.504Z,85.70
2022-12-31T17:11:34.161Z,85.50
2022-12-31T17:14:22.997Z,85.20
2022-12-31T17:17:01.727Z,85.60
2022-12-31T17:19:40.457Z,84.90
2022-12-31T17:22:32.875Z,83.90
2022-12-31T17:25:06.598Z,84.50
2022-12-31T17:27:37.309Z,84.80
2022-12-31T17:30:29.799Z,84.80
2022-12-31T17:33:15.882Z,84.00
2022-12-31T17:35:47.445Z,84.80
2022-12-31T17:38:23.101Z,84.80
2022-12-31T17:41:04.248Z,85.20
2022-12-31T17:43:36.257Z,85.40
2022-12-31T17:46:10.712Z,84.20
2022-12-31T17:48:40.311Z,84.40
2022-12-31T17:51:07.253Z,83.60
2022-12-31T17:53:40.230Z,84.60
2022-12-31T17:56:45.803Z,84.60
2022-12-31T17:59:18.024Z,84.50
2022-12-31T18:01:45.324Z,84.60
2022-12-31T18:04:14.441Z,84.40
2022-12-31T18:06:44.610Z,83.70
2022-12-31T18:09:14.225Z,84.20
2022-12-31T18:11:41.374Z,84.10
2022-12-31T18:14:08.342Z,83.60
2022-12-31T18:16:35.180Z,83.30
2022-12-31T18:19:02.630Z,84.50
2022-12-31T18:21:32.671Z,84.30
2022-12-31T18:26:28.664Z,83.30
2022-12-31T18:29:10.421Z,83.60
2022-12-31T18:31:37.447Z,83.40
2022-12-31T18:34:06.377Z,82.70
2022-12-31T18:36:33.475Z,83.20
2022-12-31T18:39:00.310Z,83.40
2022-12-31T18:41:31.485Z,83.40
2022-12-31T18:43:58.441Z,82.80
2022-12-31T18:46:25.305Z,82.60
2022-12-31T18:48:52.206Z,83.50
2022-12-31T18:51:31.511Z,83.80
2022-12-31T18:54:02.472Z,83.20
2022-12-31T18:56:57.313Z,83.40
2022-12-31T18:59:24.277Z,83.30
2022-12-31T19:01:53.816Z,82.30
2022-12-31T19:04:27.650Z,82.60
2022-12-31T19:06:56.497Z,82.40
2022-12-31T19:09:44.569Z,81.20
2022-12-31T19:12:15.269Z,80.10
2022-12-31T19:14:44.058Z,80.10
2022-12-31T19:19:36.858Z,80.60
2022-12-31T19:22:03.898Z,81.30
2022-12-31T19:24:30.985Z,81.60
2022-12-31T19:27:02.433Z,81.10
2022-12-31T19:29:36.242Z,80.70
2022-12-31T19:32:03.366Z,79.70
2022-12-31T19:34:31.840Z,79.40
2022-12-31T19:36:59.298Z,80.50
2022-12-31T19:39:30.416Z,79.80
2022-12-31T19:41:59.472Z,79.40
2022-12-31T19:44:26.846Z,80.50
2022-12-31T19:46:53.753Z,79.90
2022-12-31T19:49:20.596Z,79.80
2022-12-31T19:51:47.588Z,79.60
2022-12-31T19:54:17.380Z,79.30
2022-12-31T19:56:44.227Z,79.90
2022-12-31T19:59:11.587Z,79.50
2022-12-31T20:01:39.037Z,78.30
2022-12-31T20:04:06.502Z,79.50
2022-12-31T20:06:36.174Z,77.60
2022-12-31T20:09:03.786Z,78.90
2022-12-31T20:11:30.718Z,75.30
2022-12-31T20:13:57.863Z,76.40
2022-12-31T20:16:31.545Z,72.90
2022-12-31T20:18:58.530Z,73.60
2022-12-31T20:21:27.929Z,75.00
2022-12-31T20:23:57.714Z,73.20
2022-12-31T20:26:25.372Z,71.30
2022-12-31T20:28:52.946Z,71.80
2022-12-31T20:31:23.026Z,70.50
2022-12-31T20:33:53.096Z,70.90
2022-12-31T20:36:20.446Z,72.40
2022-12-31T20:38:47.444Z,69.90
2022-12-31T20:41:19.751Z,68.90
2022-12-31T20:43:47.034Z,69.10
2022-12-31T20:46:21.274Z,67.60
2022-12-31T20:48:50.216Z,68.40
2022-12-31T20:51:18.073Z,67.70
2022-12-31T20:53:55.272Z,68.00
2022-12-31T20:56:23.778Z,68.30
2022-12-31T20:58:51.787Z,66.40
2022-12-31T21:01:19.367Z,68.60
2022-12-31T21:04:05.393Z,67.80
2022-12-31T21:06:36.172Z,66.40
2022-12-31T21:09:05.606Z,66.30
2022-12-31T21:11:51.226Z,67.00
2022-12-31T21:14:18.715Z,66.60
2022-12-31T21:16:45.658Z,66.50
2022-12-31T21:19:12.814Z,66.20
2022-12-31T21:21:42.947Z,66.50
2022-12-31T21:24:10.079Z,64.40
2022-12-31T21:26:37.061Z,65.20
2022-12-31T21:29:06.873Z,64.70
2022-12-31T21:31:34.648Z,65.10
2022-12-31T21:34:01.743Z,65.50
2022-12-31T21:36:28.545Z,65.10
2022-12-31T21:38:55.405Z,63.90
2022-12-31T21:41:40.835Z,65.30
2022-12-31T21:44:10.922Z,65.10
2022-12-31T21:46:37.837Z,64.00
2022-12-31T21:49:07.836Z,64.80
2022-12-31T21:51:57.765Z,65.80
2022-12-31T21:54:47.197Z,65.60
2022-12-31T21:57:14.953Z,64.40
2022-12-31T22:00:39.493Z,64.90
2022-12-31T22:03:13.218Z,64.60
2022-12-31T22:06:00.227Z,64.80
2022-12-31T22:08:29.039Z,64.10
2022-12-31T22:11:03.146Z,64.20
2022-12-31T22:13:30.371Z,63.10
2022-12-31T22:16:28.934Z,63.70
2022-12-31T22:18:49.519Z,63.00
2022-12-31T22:21:23.428Z,63.20
2022-12-31T22:24:20.118Z,63.10
2022-12-31T22:26:47.178Z,63.80
2022-12-31T22:29:19.303Z,64.80
2022-12-31T22:31:49.376Z,63.90
2022-12-31T22:34:21.686Z,62.90
2022-12-31T22:36:48.782Z,63.60
2022-12-31T22:39:43.402Z,63.20
2022-12-31T22:42:02.961Z,62.60
2022-12-31T22:44:29.871Z,62.80
2022-12-31T22:46:57.047Z,62.10
2022-12-31T22:49:23.954Z,62.40
2022-12-31T22:51:57.111Z,62.20
2022-12-31T22:54:26.841Z,62.40
2022-12-31T22:56:53.779Z,62.50
2022-12-31T22:59:20.626Z,62.80
2022-12-31T23:01:52.009Z,63.10
2022-12-31T23:04:19.070Z,61.60
2022-12-31T23:06:46.157Z,62.30
2022-12-31T23:09:33.450Z,62.00
2022-12-31T23:12:01.478Z,62.70
2022-12-31T23:14:53.307Z,62.60
2022-12-31T23:17:42.469Z,62.20
2022-12-31T23:20:37.320Z,61.40
2022-12-31T23:23:11.903Z,61.20
2022-12-31T23:25:55.400Z,61.60
2022-12-31T23:28:25.023Z,61.70
2022-12-31T23:30:52.737Z,61.80
2022-12-31T23:33:29.670Z,62.00
2022-12-31T23:36:05.284Z,62.30
2022-12-31T23:38:32.314Z,61.90
2022-12-31T23:40:59.269Z,62.20
2022-12-31T23:43:29.265Z,61.60
2022-12-31T23:45:56.256Z,61.70
2022-12-31T23:48:23.173Z,62.20
2022-12-31T23:50:53.949Z,61.60
2022-12-31T23:53:22.876Z,62.20
2022-12-31T23:55:50.115Z,61.50
2022-12-31T23:58:17.029Z,62.20
